createdAt,value
2019-03-11T00:00:14.169Z,-1.50
2019-03-11T00:02:43.615Z,-1.60
2019-03-11T00:05:13.123Z,-1.60
2019-03-11T00:07:42.638Z,-1.60
2019-03-11T00:10:12.216Z,-1.60
2019-03-11T00:12:41.679Z,-1.60
2019-03-11T00:15:11.369Z,-1.60
2019-03-11T00:17:40.815Z,-1.60
2019-03-11T00:20:10.340Z,-1.60
2019-03-11T00:22:39.819Z,-1.60
2019-03-11T00:25:09.591Z,-1.60
2019-03-11T00:27:39.046Z,-1.70
2019-03-11T00:30:09.208Z,-1.70
2019-03-11T00:32:38.696Z,-1.70
2019-03-11T00:35:08.134Z,-1.80
2019-03-11T00:37:37.601Z,-1.80
2019-03-11T00:40:07.423Z,-1.80
2019-03-11T00:42:36.914Z,-1.80
2019-03-11T00:45:07.632Z,-1.80
2019-03-11T00:47:37.071Z,-1.80
2019-03-11T00:50:07.430Z,-1.90
2019-03-11T00:52:36.993Z,-1.90
2019-03-11T00:55:06.711Z,-1.90
2019-03-11T00:57:36.156Z,-1.90
2019-03-11T01:00:06.669Z,-1.90
2019-03-11T01:02:36.142Z,-1.90
2019-03-11T01:05:05.776Z,-1.90
2019-03-11T01:07:35.248Z,-1.90
2019-03-11T01:10:05.651Z,-1.90
2019-03-11T01:12:35.117Z,-1.90
2019-03-11T01:15:04.895Z,-1.80
2019-03-11T01:17:34.347Z,-1.80
2019-03-11T01:20:03.840Z,-1.80
2019-03-11T01:22:33.288Z,-1.80
2019-03-11T01:25:04.819Z,-1.80
2019-03-11T01:27:33.813Z,-1.80
2019-03-11T01:30:03.345Z,-1.70
2019-03-11T01:32:32.775Z,-1.70
2019-03-11T01:35:02.236Z,-1.70
2019-03-11T01:37:31.753Z,-1.60
2019-03-11T01:40:02.088Z,-1.50
2019-03-11T01:42:31.544Z,-1.40
2019-03-11T01:45:01.001Z,-1.30
2019-03-11T01:47:30.452Z,-1.20
2019-03-11T01:49:59.903Z,-1.10
2019-03-11T01:52:29.393Z,-1.00
2019-03-11T01:54:58.819Z,-1.00
2019-03-11T01:57:28.267Z,-0.80
2019-03-11T01:59:57.737Z,-0.70
2019-03-11T02:02:27.185Z,-0.70
2019-03-11T02:04:56.652Z,-0.60
2019-03-11T02:07:26.146Z,-0.50
2019-03-11T02:09:55.643Z,-0.40
2019-03-11T02:12:25.087Z,-0.40
2019-03-11T02:14:54.604Z,-0.40
2019-03-11T02:17:24.075Z,-0.40
2019-03-11T02:19:53.973Z,-0.40
2019-03-11T02:22:23.473Z,-0.30
2019-03-11T02:24:52.984Z,-0.40
2019-03-11T02:27:22.464Z,-0.40
2019-03-11T02:29:51.931Z,-0.40
2019-03-11T02:32:21.367Z,-0.50
2019-03-11T02:34:50.798Z,-0.50
2019-03-11T02:37:20.279Z,-0.50
2019-03-11T02:39:49.726Z,-0.50
2019-03-11T02:42:19.169Z,-0.50
2019-03-11T02:44:48.663Z,-0.60
2019-03-11T02:47:18.092Z,-0.60
2019-03-11T02:49:47.527Z,-0.70
2019-03-11T02:52:16.976Z,-0.70
2019-03-11T02:54:46.404Z,-0.80
2019-03-11T02:57:15.916Z,-0.90
2019-03-11T02:59:45.391Z,-0.90
2019-03-11T03:02:25.693Z,-0.90
2019-03-11T03:05:16.777Z,-0.90
2019-03-11T03:07:46.237Z,-1.00
2019-03-11T03:10:15.679Z,-1.00
2019-03-11T03:12:45.163Z,-1.00
2019-03-11T03:15:14.609Z,-1.00
2019-03-11T03:17:44.061Z,-1.10
2019-03-11T03:20:13.703Z,-1.10
2019-03-11T03:22:43.144Z,-1.10
2019-03-11T03:25:13.227Z,-1.10
2019-03-11T03:27:42.744Z,-1.20
2019-03-11T03:30:14.211Z,-1.20
2019-03-11T03:32:43.625Z,-1.20
2019-03-11T03:35:13.117Z,-1.30
2019-03-11T03:37:42.531Z,-1.30
2019-03-11T03:40:12.033Z,-1.30
2019-03-11T03:42:41.641Z,-1.30
2019-03-11T03:45:34.402Z,-1.30
2019-03-11T03:48:03.897Z,-1.30
2019-03-11T03:50:35.332Z,-1.30
2019-03-11T03:53:04.936Z,-1.30
2019-03-11T03:55:34.416Z,-1.40
2019-03-11T03:58:04.064Z,-1.40
2019-03-11T04:00:33.605Z,-1.40
2019-03-11T04:03:03.060Z,-1.40
2019-03-11T04:05:32.513Z,-1.40
2019-03-11T04:08:01.951Z,-1.40
2019-03-11T04:10:33.823Z,-1.40
2019-03-11T04:13:03.344Z,-1.40
2019-03-11T04:15:32.793Z,-1.40
2019-03-11T04:18:02.245Z,-1.40
2019-03-11T04:20:31.771Z,-1.30
2019-03-11T04:23:01.312Z,-1.30
2019-03-11T04:25:31.259Z,-1.40
2019-03-11T04:28:00.717Z,-1.30
2019-03-11T04:30:30.307Z,-1.30
2019-03-11T04:32:59.828Z,-1.30
2019-03-11T04:35:29.243Z,-1.30
2019-03-11T04:37:58.687Z,-1.30
2019-03-11T04:40:28.175Z,-1.30
2019-03-11T04:42:57.641Z,-1.30
2019-03-11T04:45:27.114Z,-1.30
2019-03-11T04:47:56.568Z,-1.30
2019-03-11T04:50:26.006Z,-1.30
2019-03-11T04:52:55.432Z,-1.30
2019-03-11T04:55:24.891Z,-1.30
2019-03-11T04:57:54.591Z,-1.20
2019-03-11T05:00:27.816Z,-1.20
2019-03-11T05:02:57.291Z,-1.20
2019-03-11T05:05:26.759Z,-1.20
2019-03-11T05:07:56.191Z,-1.30
2019-03-11T05:10:25.663Z,-1.30
2019-03-11T05:12:55.130Z,-1.40
2019-03-11T05:15:24.646Z,-1.40
2019-03-11T05:17:54.067Z,-1.50
2019-03-11T05:20:24.227Z,-1.60
2019-03-11T05:22:54.880Z,-1.60
2019-03-11T05:25:24.583Z,-1.60
2019-03-11T05:27:53.999Z,-1.70
2019-03-11T05:30:23.434Z,-1.70
2019-03-11T05:32:52.897Z,-1.70
2019-03-11T05:35:22.320Z,-1.70
2019-03-11T05:37:51.770Z,-1.80
2019-03-11T05:40:22.780Z,-1.80
2019-03-11T05:42:52.231Z,-1.80
2019-03-11T05:45:21.665Z,-1.90
2019-03-11T05:47:51.138Z,-1.90
2019-03-11T05:50:20.599Z,-1.90
2019-03-11T05:52:50.069Z,-1.90
2019-03-11T05:55:19.527Z,-1.90
2019-03-11T05:57:48.951Z,-1.90
2019-03-11T06:00:22.176Z,-1.90
2019-03-11T06:02:52.594Z,-1.90
2019-03-11T06:05:22.047Z,-1.90
2019-03-11T06:07:51.548Z,-1.90
2019-03-11T06:10:20.988Z,-1.90
2019-03-11T06:12:50.407Z,-1.90
2019-03-11T06:15:20.033Z,-1.90
2019-03-11T06:17:49.551Z,-1.90
2019-03-11T06:20:41.959Z,-1.80
2019-03-11T06:23:12.079Z,-1.80
2019-03-11T06:25:41.504Z,-1.80
2019-03-11T06:28:10.984Z,-1.80
2019-03-11T06:30:40.477Z,-1.80
2019-03-11T06:33:09.972Z,-1.70
2019-03-11T06:35:40.449Z,-1.70
2019-03-11T06:38:10.232Z,-1.70
2019-03-11T06:40:39.692Z,-1.60
2019-03-11T06:43:09.162Z,-1.60
2019-03-11T06:45:38.747Z,-1.50
2019-03-11T06:48:08.186Z,-1.40
2019-03-11T06:50:37.671Z,-1.40
2019-03-11T06:53:07.227Z,-1.30
2019-03-11T06:55:36.691Z,-1.30
2019-03-11T06:58:06.227Z,-1.20
2019-03-11T07:00:35.695Z,-1.10
2019-03-11T07:03:05.245Z,-1.00
2019-03-11T07:05:34.767Z,-0.80
2019-03-11T07:08:04.241Z,-0.80
2019-03-11T07:10:33.683Z,-0.60
2019-03-11T07:13:03.140Z,-0.50
2019-03-11T07:15:32.598Z,-0.50
2019-03-11T07:18:02.034Z,-0.30
2019-03-11T07:20:31.560Z,-0.30
2019-03-11T07:23:01.006Z,-0.20
2019-03-11T07:25:30.457Z,-0.10
2019-03-11T07:27:59.936Z,0.00
2019-03-11T07:30:29.389Z,0.10
2019-03-11T07:32:58.887Z,0.10
2019-03-11T07:35:28.339Z,0.20
2019-03-11T07:37:57.906Z,0.30
2019-03-11T07:40:30.021Z,0.40
2019-03-11T07:42:58.630Z,0.50
2019-03-11T07:45:28.106Z,0.60
2019-03-11T07:47:57.557Z,0.70
2019-03-11T07:50:27.036Z,0.70
2019-03-11T07:52:56.482Z,0.80
2019-03-11T07:55:25.962Z,0.90
2019-03-11T07:57:55.465Z,0.90
2019-03-11T08:00:24.927Z,1.10
2019-03-11T08:02:54.433Z,1.10
2019-03-11T08:05:24.016Z,1.20
2019-03-11T08:07:53.519Z,1.30
2019-03-11T08:10:22.983Z,1.30
2019-03-11T08:12:52.427Z,1.40
2019-03-11T08:15:21.876Z,1.50
2019-03-11T08:17:51.347Z,1.60
2019-03-11T08:20:20.840Z,1.60
2019-03-11T08:22:50.303Z,1.70
2019-03-11T08:25:19.739Z,1.80
2019-03-11T08:27:49.225Z,1.90
2019-03-11T08:30:18.859Z,1.90
2019-03-11T08:32:48.367Z,2.00
2019-03-11T08:35:18.027Z,2.10
2019-03-11T08:37:47.547Z,2.10
2019-03-11T08:40:17.309Z,2.20
2019-03-11T08:42:46.992Z,2.20
2019-03-11T08:45:16.937Z,2.30
2019-03-11T08:47:46.699Z,2.40
2019-03-11T08:50:16.666Z,2.40
2019-03-11T08:52:51.246Z,2.50
2019-03-11T08:55:28.406Z,2.60
2019-03-11T08:57:58.080Z,2.60
2019-03-11T09:00:27.610Z,2.70
2019-03-11T09:02:57.445Z,2.80
2019-03-11T09:05:27.382Z,2.90
2019-03-11T09:07:56.819Z,3.00
2019-03-11T09:10:26.339Z,3.10
2019-03-11T09:12:55.777Z,3.20
2019-03-11T09:15:25.236Z,3.20
2019-03-11T09:17:54.761Z,3.30
2019-03-11T09:20:24.250Z,3.20
2019-03-11T09:22:53.696Z,3.30
2019-03-11T09:25:23.219Z,3.20
2019-03-11T09:27:52.685Z,3.30
2019-03-11T09:30:22.340Z,3.30
2019-03-11T09:32:51.823Z,3.40
2019-03-11T09:35:21.307Z,3.40
2019-03-11T09:37:50.767Z,3.50
2019-03-11T09:40:20.282Z,3.50
2019-03-11T09:42:49.737Z,3.60
2019-03-11T09:45:19.200Z,3.60
2019-03-11T09:47:48.813Z,3.70
2019-03-11T09:50:18.342Z,3.80
2019-03-11T09:52:47.732Z,3.80
2019-03-11T09:55:17.259Z,3.90
2019-03-11T09:57:46.702Z,4.00
2019-03-11T10:00:18.514Z,4.10
2019-03-11T10:02:52.665Z,4.10
2019-03-11T10:05:19.149Z,4.10
2019-03-11T10:07:48.674Z,4.20
2019-03-11T10:10:18.253Z,4.20
2019-03-11T10:12:47.756Z,4.30
2019-03-11T10:15:18.282Z,4.30
2019-03-11T10:17:47.766Z,4.40
2019-03-11T10:20:17.460Z,4.40
2019-03-11T10:22:46.935Z,4.40
2019-03-11T10:25:16.563Z,4.30
2019-03-11T10:27:46.119Z,4.40
2019-03-11T10:30:16.504Z,4.30
2019-03-11T10:32:46.067Z,4.30
2019-03-11T10:35:30.625Z,4.20
2019-03-11T10:37:47.267Z,4.20
2019-03-11T10:40:18.326Z,4.00
2019-03-11T10:42:47.767Z,4.00
2019-03-11T10:45:17.250Z,3.90
2019-03-11T10:47:47.002Z,3.90
2019-03-11T10:50:16.532Z,3.90
2019-03-11T10:52:45.971Z,3.90
2019-03-11T10:55:15.692Z,4.00
2019-03-11T10:57:45.443Z,4.00
2019-03-11T11:00:20.574Z,4.00
2019-03-11T11:02:50.587Z,4.10
2019-03-11T11:05:20.039Z,4.20
2019-03-11T11:07:49.773Z,4.30
2019-03-11T11:10:19.407Z,4.40
2019-03-11T11:12:49.754Z,4.50
2019-03-11T11:15:20.730Z,4.50
2019-03-11T11:17:50.283Z,4.60
2019-03-11T11:20:19.937Z,4.70
2019-03-11T11:22:49.715Z,4.70
2019-03-11T11:25:19.617Z,4.80
2019-03-11T11:27:49.069Z,4.80
2019-03-11T11:30:20.012Z,4.80
2019-03-11T11:32:49.519Z,4.90
2019-03-11T11:35:19.124Z,4.90
2019-03-11T11:37:49.015Z,5.00
2019-03-11T11:40:20.579Z,5.00
2019-03-11T11:42:50.020Z,5.10
2019-03-11T11:45:19.792Z,5.10
2019-03-11T11:47:49.263Z,5.20
2019-03-11T11:50:19.568Z,5.30
2019-03-11T11:52:49.165Z,5.50
2019-03-11T11:55:19.748Z,5.50
2019-03-11T11:57:49.211Z,5.50
2019-03-11T12:00:21.417Z,5.50
2019-03-11T12:02:50.873Z,5.50
2019-03-11T12:05:20.320Z,5.60
2019-03-11T12:07:49.939Z,5.60
2019-03-11T12:10:19.805Z,5.70
2019-03-11T12:12:49.250Z,5.70
2019-03-11T12:15:18.715Z,5.60
2019-03-11T12:17:48.156Z,5.60
2019-03-11T12:20:19.373Z,5.60
2019-03-11T12:22:48.890Z,5.50
2019-03-11T12:25:18.423Z,5.40
2019-03-11T12:27:53.811Z,5.40
2019-03-11T12:30:23.959Z,5.50
2019-03-11T12:32:53.434Z,5.50
2019-03-11T12:35:22.965Z,5.60
2019-03-11T12:37:52.557Z,5.70
2019-03-11T12:40:21.996Z,5.80
2019-03-11T12:42:51.452Z,5.80
2019-03-11T12:45:21.046Z,5.80
2019-03-11T12:47:50.483Z,5.80
2019-03-11T12:50:20.700Z,5.80
2019-03-11T12:52:50.171Z,5.80
2019-03-11T12:55:21.271Z,5.90
2019-03-11T12:57:50.686Z,5.90
2019-03-11T13:00:20.396Z,5.90
2019-03-11T13:02:49.907Z,5.80
2019-03-11T13:05:19.533Z,5.90
2019-03-11T13:07:53.543Z,5.90
2019-03-11T13:10:23.027Z,5.90
2019-03-11T13:12:52.608Z,5.90
2019-03-11T13:15:22.193Z,5.80
2019-03-11T13:17:53.139Z,5.80
2019-03-11T13:20:29.111Z,5.70
2019-03-11T13:22:58.563Z,5.70
2019-03-11T13:25:28.106Z,5.80
2019-03-11T13:27:57.758Z,5.80
2019-03-11T13:30:27.336Z,5.80
2019-03-11T13:32:58.852Z,5.80
2019-03-11T13:35:28.415Z,5.70
2019-03-11T13:37:57.976Z,5.70
2019-03-11T13:40:27.730Z,5.60
2019-03-11T13:42:57.163Z,5.60
2019-03-11T13:45:26.637Z,5.60
2019-03-11T13:47:56.266Z,5.60
2019-03-11T13:50:25.820Z,5.50
2019-03-11T13:52:55.307Z,5.50
2019-03-11T13:55:24.779Z,5.40
2019-03-11T13:57:54.220Z,5.40
2019-03-11T14:00:23.777Z,5.30
2019-03-11T14:02:53.441Z,5.30
2019-03-11T14:05:22.900Z,5.30
2019-03-11T14:07:52.568Z,5.30
2019-03-11T14:10:22.308Z,5.30
2019-03-11T14:12:54.367Z,5.30
2019-03-11T14:15:23.840Z,5.20
2019-03-11T14:17:53.540Z,5.30
2019-03-11T14:20:23.204Z,5.20
2019-03-11T14:22:52.993Z,5.20
2019-03-11T14:25:22.534Z,5.20
2019-03-11T14:27:52.005Z,5.10
2019-03-11T14:30:21.679Z,5.20
2019-03-11T14:32:51.222Z,5.20
2019-03-11T14:35:20.676Z,5.10
2019-03-11T14:37:50.123Z,5.10
2019-03-11T14:40:19.796Z,5.00
2019-03-11T14:42:49.251Z,5.00
2019-03-11T14:45:18.859Z,5.00
2019-03-11T14:47:48.406Z,4.90
2019-03-11T14:50:18.380Z,4.90
2019-03-11T14:52:47.928Z,4.80
2019-03-11T14:55:17.729Z,4.80
2019-03-11T14:57:47.211Z,4.70
2019-03-11T15:00:18.710Z,4.70
2019-03-11T15:02:48.708Z,4.60
2019-03-11T15:05:18.605Z,4.60
2019-03-11T15:07:48.082Z,4.60
2019-03-11T15:10:17.991Z,4.60
2019-03-11T15:12:47.587Z,4.50
2019-03-11T15:15:17.483Z,4.50
2019-03-11T15:17:46.935Z,4.40
2019-03-11T15:20:16.784Z,4.40
2019-03-11T15:22:46.300Z,4.40
2019-03-11T15:25:15.830Z,4.40
2019-03-11T15:27:45.505Z,4.30
2019-03-11T15:30:16.500Z,4.30
2019-03-11T15:32:46.073Z,4.20
2019-03-11T15:35:15.653Z,4.20
2019-03-11T15:37:45.152Z,4.10
2019-03-11T15:40:14.939Z,4.10
2019-03-11T15:42:44.609Z,4.00
2019-03-11T15:45:14.694Z,4.00
2019-03-11T15:47:44.158Z,4.00
2019-03-11T15:50:16.085Z,3.90
2019-03-11T15:52:45.548Z,3.90
2019-03-11T15:55:15.580Z,3.80
2019-03-11T15:57:45.198Z,3.70
2019-03-11T16:00:17.245Z,3.70
2019-03-11T16:02:46.927Z,3.60
2019-03-11T16:05:17.983Z,3.50
2019-03-11T16:07:47.435Z,3.50
2019-03-11T16:10:17.602Z,3.40
2019-03-11T16:12:47.225Z,3.30
2019-03-11T16:15:17.003Z,3.30
2019-03-11T16:17:46.707Z,3.20
2019-03-11T16:20:17.380Z,3.10
2019-03-11T16:22:46.829Z,3.00
2019-03-11T16:25:16.367Z,3.00
2019-03-11T16:27:45.939Z,2.90
2019-03-11T16:30:17.538Z,2.90
2019-03-11T16:32:58.379Z,2.80
2019-03-11T16:35:18.558Z,2.70
2019-03-11T16:37:48.019Z,2.60
2019-03-11T16:40:17.513Z,2.50
2019-03-11T16:42:47.031Z,2.40
2019-03-11T16:45:17.542Z,2.30
2019-03-11T16:47:47.113Z,2.20
2019-03-11T16:50:17.113Z,2.20
2019-03-11T16:52:46.531Z,2.10
2019-03-11T16:55:17.108Z,2.00
2019-03-11T16:57:46.549Z,1.90
2019-03-11T17:00:21.971Z,1.80
2019-03-11T17:02:51.539Z,1.70
2019-03-11T17:05:21.083Z,1.60
2019-03-11T17:07:50.539Z,1.50
2019-03-11T17:10:20.118Z,1.40
2019-03-11T17:12:49.572Z,1.30
2019-03-11T17:15:19.198Z,1.30
2019-03-11T17:17:48.651Z,1.20
2019-03-11T17:20:18.149Z,1.10
2019-03-11T17:22:47.665Z,1.00
2019-03-11T17:25:17.113Z,0.90
2019-03-11T17:27:46.559Z,0.90
2019-03-11T17:30:16.543Z,0.80
2019-03-11T17:32:46.112Z,0.70
2019-03-11T17:35:16.004Z,0.70
2019-03-11T17:37:45.463Z,0.60
2019-03-11T17:40:16.137Z,0.50
2019-03-11T17:42:45.683Z,0.50
2019-03-11T17:45:15.532Z,0.40
2019-03-11T17:47:45.603Z,0.30
2019-03-11T17:50:15.713Z,0.30
2019-03-11T17:52:45.375Z,0.20
2019-03-11T17:55:15.217Z,0.20
2019-03-11T17:57:44.648Z,0.10
2019-03-11T18:00:19.532Z,0.00
2019-03-11T18:02:49.105Z,0.00
2019-03-11T18:05:18.601Z,0.00
2019-03-11T18:07:48.041Z,-0.10
2019-03-11T18:10:17.584Z,-0.10
2019-03-11T18:12:47.195Z,-0.10
2019-03-11T18:15:17.046Z,-0.10
2019-03-11T18:17:46.801Z,-0.10
2019-03-11T18:20:16.346Z,-0.10
2019-03-11T18:22:45.956Z,-0.10
2019-03-11T18:25:15.563Z,-0.10
2019-03-11T18:27:45.051Z,-0.10
2019-03-11T18:30:17.596Z,-0.10
2019-03-11T18:32:47.072Z,-0.10
2019-03-11T18:35:16.812Z,-0.10
2019-03-11T18:37:46.242Z,-0.20
2019-03-11T18:40:16.042Z,-0.20
2019-03-11T18:42:45.516Z,-0.20
2019-03-11T18:45:15.532Z,-0.20
2019-03-11T18:47:45.165Z,-0.20
2019-03-11T18:50:14.862Z,-0.30
2019-03-11T18:52:44.292Z,-0.30
2019-03-11T18:55:14.371Z,-0.30
2019-03-11T18:57:43.819Z,-0.40
2019-03-11T19:00:15.191Z,-0.40
2019-03-11T19:02:44.995Z,-0.50
2019-03-11T19:05:15.011Z,-0.50
2019-03-11T19:07:44.441Z,-0.60
2019-03-11T19:10:16.604Z,-0.60
2019-03-11T19:12:46.121Z,-0.60
2019-03-11T19:15:16.380Z,-0.60
2019-03-11T19:17:45.907Z,-0.60
2019-03-11T19:20:16.855Z,-0.60
2019-03-11T19:22:46.561Z,-0.60
2019-03-11T19:25:16.300Z,-0.60
2019-03-11T19:27:45.814Z,-0.70
2019-03-11T19:30:17.088Z,-0.70
2019-03-11T19:32:46.503Z,-0.70
2019-03-11T19:35:17.255Z,-0.60
2019-03-11T19:37:46.681Z,-0.60
2019-03-11T19:40:17.034Z,-0.60
2019-03-11T19:42:46.531Z,-0.50
2019-03-11T19:45:16.485Z,-0.60
2019-03-11T19:47:45.980Z,-0.60
2019-03-11T19:50:16.106Z,-0.70
2019-03-11T19:52:57.294Z,-0.70
2019-03-11T19:55:16.668Z,-0.80
2019-03-11T19:57:46.175Z,-0.80
2019-03-11T20:00:17.557Z,-0.90
2019-03-11T20:02:47.183Z,-0.90
2019-03-11T20:05:17.816Z,-1.00
2019-03-11T20:07:47.301Z,-1.00
2019-03-11T20:10:17.437Z,-1.10
2019-03-11T20:12:46.972Z,-1.00
2019-03-11T20:15:16.524Z,-1.00
2019-03-11T20:17:46.332Z,-1.00
2019-03-11T20:20:15.873Z,-1.00
2019-03-11T20:22:45.352Z,-0.90
2019-03-11T20:25:17.419Z,-0.90
2019-03-11T20:27:46.900Z,-0.80
2019-03-11T20:30:18.157Z,-0.80
2019-03-11T20:32:47.583Z,-0.80
2019-03-11T20:35:17.783Z,-0.80
2019-03-11T20:37:47.490Z,-0.70
2019-03-11T20:40:16.943Z,-0.70
2019-03-11T20:42:46.457Z,-0.70
2019-03-11T20:45:15.959Z,-0.70
2019-03-11T20:47:45.396Z,-0.70
2019-03-11T20:50:14.951Z,-0.70
2019-03-11T20:52:44.437Z,-0.70
2019-03-11T20:55:14.616Z,-0.60
2019-03-11T20:57:44.206Z,-0.60
2019-03-11T21:00:18.047Z,-0.60
2019-03-11T21:02:47.575Z,-0.60
2019-03-11T21:05:18.031Z,-0.60
2019-03-11T21:07:47.544Z,-0.60
2019-03-11T21:10:17.312Z,-0.60
2019-03-11T21:12:46.765Z,-0.60
2019-03-11T21:15:16.465Z,-0.60
2019-03-11T21:17:45.942Z,-0.50
2019-03-11T21:20:15.419Z,-0.50
2019-03-11T21:22:44.855Z,-0.50
2019-03-11T21:25:15.706Z,-0.50
2019-03-11T21:27:45.120Z,-0.40
2019-03-11T21:30:16.686Z,-0.40
2019-03-11T21:32:46.114Z,-0.40
2019-03-11T21:35:15.786Z,-0.30
2019-03-11T21:37:45.267Z,-0.30
2019-03-11T21:40:18.430Z,-0.30
2019-03-11T21:42:48.044Z,-0.40
2019-03-11T21:45:32.975Z,-0.40
2019-03-11T21:47:51.799Z,-0.40
2019-03-11T21:50:22.385Z,-0.40
2019-03-11T21:52:51.920Z,-0.40
2019-03-11T21:55:21.586Z,-0.50
2019-03-11T21:57:51.143Z,-0.50
2019-03-11T22:00:32.763Z,-0.50
2019-03-11T22:02:52.932Z,-0.60
2019-03-11T22:05:22.454Z,-0.60
2019-03-11T22:07:51.901Z,-0.60
2019-03-11T22:10:21.390Z,-0.70
2019-03-11T22:12:50.827Z,-0.70
2019-03-11T22:15:20.371Z,-0.70
2019-03-11T22:17:49.815Z,-0.70
2019-03-11T22:20:19.408Z,-0.70
2019-03-11T22:22:48.896Z,-0.70
2019-03-11T22:25:18.345Z,-0.70
2019-03-11T22:27:47.763Z,-0.70
2019-03-11T22:30:18.602Z,-0.70
2019-03-11T22:32:48.178Z,-0.70
2019-03-11T22:35:17.713Z,-0.80
2019-03-11T22:37:47.173Z,-0.80
2019-03-11T22:40:17.083Z,-0.90
2019-03-11T22:42:46.784Z,-0.90
2019-03-11T22:45:17.717Z,-1.00
2019-03-11T22:47:47.195Z,-1.00
2019-03-11T22:50:17.942Z,-1.00
2019-03-11T22:52:47.753Z,-1.10
2019-03-11T22:55:17.335Z,-1.10
2019-03-11T22:57:46.780Z,-1.10
2019-03-11T23:00:30.132Z,-1.20
2019-03-11T23:02:59.581Z,-1.20
2019-03-11T23:05:29.047Z,-1.20
2019-03-11T23:07:58.544Z,-1.30
2019-03-11T23:10:27.984Z,-1.30
2019-03-11T23:12:57.441Z,-1.30
2019-03-11T23:15:26.932Z,-1.40
2019-03-11T23:17:56.387Z,-1.40
2019-03-11T23:20:25.824Z,-1.50
2019-03-11T23:22:55.262Z,-1.40
2019-03-11T23:25:24.744Z,-1.50
2019-03-11T23:27:54.205Z,-1.50
2019-03-11T23:30:23.656Z,-1.50
2019-03-11T23:32:53.362Z,-1.50
2019-03-11T23:35:22.812Z,-1.50
2019-03-11T23:37:52.288Z,-1.50
2019-03-11T23:40:21.884Z,-1.50
2019-03-11T23:42:51.336Z,-1.60
2019-03-11T23:45:20.827Z,-1.60
2019-03-11T23:47:50.305Z,-1.70
2019-03-11T23:50:19.903Z,-1.80
2019-03-11T23:52:49.791Z,-1.80
2019-03-11T23:55:19.255Z,-1.80
2019-03-11T23:57:48.763Z,-1.80
